sensor_id;sensor_type;location;lat;lon;timestamp;P1;durP1;ratioP1;P2;durP2;ratioP2
17488;SDS011;8861;52.644;4.734;2022-11-15T07:16:06;61.23;;;33.47;;
17488;SDS011;8861;52.644;4.734;2022-11-15T07:18:35;57.20;;;33.53;;
17488;SDS011;8861;52.644;4.734;2022-11-15T07:21:03;56.13;;;33.57;;
17488;SDS011;8861;52.644;4.734;2022-11-15T07:23:32;63.90;;;36.60;;
17488;SDS011;8861;52.644;4.734;2022-11-15T07:25:59;66.30;;;35.57;;
17488;SDS011;8861;52.644;4.734;2022-11-15T07:28:26;58.07;;;34.27;;
17488;SDS011;8861;52.644;4.734;2022-11-15T07:30:53;57.87;;;32.90;;
17488;SDS011;8861;52.644;4.734;2022-11-15T07:33:22;60.47;;;34.27;;
17488;SDS011;8861;52.644;4.734;2022-11-15T07:35:49;55.93;;;33.30;;
17488;SDS011;8861;52.644;4.734;2022-11-15T07:38:16;64.13;;;34.20;;
17488;SDS011;8861;52.644;4.734;2022-11-15T07:40:45;53.57;;;31.37;;
17488;SDS011;8861;52.644;4.734;2022-11-15T07:43:12;53.57;;;30.40;;
17488;SDS011;8861;52.644;4.734;2022-11-15T07:45:42;50.53;;;29.70;;
17488;SDS011;8861;52.644;4.734;2022-11-15T07:48:10;57.17;;;31.17;;
17488;SDS011;8861;52.644;4.734;2022-11-15T07:50:41;53.23;;;30.70;;
17488;SDS011;8861;52.644;4.734;2022-11-15T07:53:09;57.77;;;31.97;;
17488;SDS011;8861;52.644;4.734;2022-11-15T07:55:36;60.57;;;32.27;;
17488;SDS011;8861;52.644;4.734;2022-11-15T07:58:04;49.03;;;30.07;;
17488;SDS011;8861;52.644;4.734;2022-11-15T08:00:32;51.00;;;30.17;;
17488;SDS011;8861;52.644;4.734;2022-11-15T08:03:03;52.90;;;30.67;;
17488;SDS011;8861;52.644;4.734;2022-11-15T08:05:30;50.83;;;28.67;;
17488;SDS011;8861;52.644;4.734;2022-11-15T08:07:59;49.33;;;29.67;;
17488;SDS011;8861;52.644;4.734;2022-11-15T08:10:26;52.93;;;30.10;;
17488;SDS011;8861;52.644;4.734;2022-11-15T08:12:57;47.30;;;28.60;;
17488;SDS011;8861;52.644;4.734;2022-11-15T08:15:24;55.20;;;30.23;;
17488;SDS011;8861;52.644;4.734;2022-11-15T08:17:55;44.53;;;25.67;;
17488;SDS011;8861;52.644;4.734;2022-11-15T08:20:22;35.07;;;23.73;;
17488;SDS011;8861;52.644;4.734;2022-11-15T08:22:49;39.10;;;23.60;;
17488;SDS011;8861;52.644;4.734;2022-11-15T08:25:17;33.23;;;21.50;;
17488;SDS011;8861;52.644;4.734;2022-11-15T08:27:44;35.20;;;22.23;;
17488;SDS011;8861;52.644;4.734;2022-11-15T08:30:12;35.80;;;21.20;;
17488;SDS011;8861;52.644;4.734;2022-11-15T08:32:41;33.87;;;20.37;;
17488;SDS011;8861;52.644;4.734;2022-11-15T08:35:08;35.47;;;20.00;;
17488;SDS011;8861;52.644;4.734;2022-11-15T08:37:35;31.43;;;19.00;;
17488;SDS011;8861;52.644;4.734;2022-11-15T08:40:02;29.77;;;18.17;;
17488;SDS011;8861;52.644;4.734;2022-11-15T08:42:31;34.73;;;18.73;;
17488;SDS011;8861;52.644;4.734;2022-11-15T08:44:58;27.20;;;16.67;;
17488;SDS011;8861;52.644;4.734;2022-11-15T08:47:25;29.73;;;17.40;;
17488;SDS011;8861;52.644;4.734;2022-11-15T08:49:52;31.97;;;17.53;;
17488;SDS011;8861;52.644;4.734;2022-11-15T08:52:19;30.27;;;18.13;;
17488;SDS011;8861;52.644;4.734;2022-11-15T08:54:46;26.80;;;17.10;;
17488;SDS011;8861;52.644;4.734;2022-11-15T08:57:13;29.77;;;15.70;;
17488;SDS011;8861;52.644;4.734;2022-11-15T08:59:41;29.17;;;15.60;;
17488;SDS011;8861;52.644;4.734;2022-11-15T09:02:10;23.47;;;14.17;;
17488;SDS011;8861;52.644;4.734;2022-11-15T09:04:39;27.30;;;15.53;;
17488;SDS011;8861;52.644;4.734;2022-11-15T09:07:07;31.00;;;14.93;;
17488;SDS011;8861;52.644;4.734;2022-11-15T09:09:33;27.27;;;14.80;;
17488;SDS011;8861;52.644;4.734;2022-11-15T09:12:00;23.13;;;14.40;;
17488;SDS011;8861;52.644;4.734;2022-11-15T09:14:27;24.27;;;13.80;;
17488;SDS011;8861;52.644;4.734;2022-11-15T09:16:56;18.60;;;12.70;;
17488;SDS011;8861;52.644;4.734;2022-11-15T09:19:23;25.03;;;14.03;;
17488;SDS011;8861;52.644;4.734;2022-11-15T09:21:50;24.10;;;12.93;;
17488;SDS011;8861;52.644;4.734;2022-11-15T09:24:17;24.40;;;13.23;;
17488;SDS011;8861;52.644;4.734;2022-11-15T09:26:44;20.63;;;13.00;;
17488;SDS011;8861;52.644;4.734;2022-11-15T09:29:10;23.30;;;13.63;;
17488;SDS011;8861;52.644;4.734;2022-11-15T09:31:37;23.57;;;13.03;;
17488;SDS011;8861;52.644;4.734;2022-11-15T09:34:06;19.77;;;13.00;;
17488;SDS011;8861;52.644;4.734;2022-11-15T09:36:32;20.07;;;12.50;;
17488;SDS011;8861;52.644;4.734;2022-11-15T09:39:00;18.27;;;11.63;;
17488;SDS011;8861;52.644;4.734;2022-11-15T09:41:34;20.50;;;12.00;;
17488;SDS011;8861;52.644;4.734;2022-11-15T09:47:17;22.53;;;12.30;;
17488;SDS011;8861;52.644;4.734;2022-11-15T09:50:01;19.20;;;11.40;;
17488;SDS011;8861;52.644;4.734;2022-11-15T09:52:34;18.93;;;12.30;;
17488;SDS011;8861;52.644;4.734;2022-11-15T09:55:02;20.07;;;12.70;;
17488;SDS011;8861;52.644;4.734;2022-11-15T09:57:37;17.10;;;12.13;;
17488;SDS011;8861;52.644;4.734;2022-11-15T10:00:09;22.83;;;13.43;;
17488;SDS011;8861;52.644;4.734;2022-11-15T10:02:46;20.90;;;12.70;;
17488;SDS011;8861;52.644;4.734;2022-11-15T10:05:25;18.67;;;11.97;;
17488;SDS011;8861;52.644;4.734;2022-11-15T10:07:55;16.87;;;11.53;;
17488;SDS011;8861;52.644;4.734;2022-11-15T10:10:29;20.03;;;11.70;;
17488;SDS011;8861;52.644;4.734;2022-11-15T10:13:02;17.47;;;11.47;;
17488;SDS011;8861;52.644;4.734;2022-11-15T10:15:29;18.40;;;10.73;;
17488;SDS011;8861;52.644;4.734;2022-11-15T10:18:14;17.33;;;9.47;;
17488;SDS011;8861;52.644;4.734;2022-11-15T10:20:46;17.83;;;9.47;;
17488;SDS011;8861;52.644;4.734;2022-11-15T10:23:15;17.07;;;9.00;;
17488;SDS011;8861;52.644;4.734;2022-11-15T10:25:44;14.30;;;8.83;;
17488;SDS011;8861;52.644;4.734;2022-11-15T10:28:14;16.30;;;8.73;;
17488;SDS011;8861;52.644;4.734;2022-11-15T10:30:44;13.60;;;8.40;;
17488;SDS011;8861;52.644;4.734;2022-11-15T10:33:18;15.33;;;9.37;;
17488;SDS011;8861;52.644;4.734;2022-11-15T10:38:56;15.93;;;9.57;;
17488;SDS011;8861;52.644;4.734;2022-11-15T10:41:31;16.70;;;9.13;;
17488;SDS011;8861;52.644;4.734;2022-11-15T10:44:03;16.97;;;9.17;;
17488;SDS011;8861;52.644;4.734;2022-11-15T10:46:44;15.67;;;8.43;;
17488;SDS011;8861;52.644;4.734;2022-11-15T10:49:14;13.80;;;8.90;;
17488;SDS011;8861;52.644;4.734;2022-11-15T10:51:45;16.93;;;9.63;;
17488;SDS011;8861;52.644;4.734;2022-11-15T10:54:13;15.83;;;8.93;;
17488;SDS011;8861;52.644;4.734;2022-11-15T10:56:48;18.03;;;9.23;;
17488;SDS011;8861;52.644;4.734;2022-11-15T10:59:17;12.87;;;9.13;;
17488;SDS011;8861;52.644;4.734;2022-11-15T11:01:50;13.33;;;8.60;;
17488;SDS011;8861;52.644;4.734;2022-11-15T11:04:17;15.23;;;9.03;;
17488;SDS011;8861;52.644;4.734;2022-11-15T11:06:49;16.20;;;9.43;;
17488;SDS011;8861;52.644;4.734;2022-11-15T11:09:27;16.00;;;8.93;;
17488;SDS011;8861;52.644;4.734;2022-11-15T11:11:57;18.37;;;9.60;;
17488;SDS011;8861;52.644;4.734;2022-11-15T11:14:25;15.77;;;8.90;;
17488;SDS011;8861;52.644;4.734;2022-11-15T11:16:57;12.50;;;8.43;;
17488;SDS011;8861;52.644;4.734;2022-11-15T11:19:35;14.67;;;8.40;;
17488;SDS011;8861;52.644;4.734;2022-11-15T11:22:11;15.03;;;8.17;;
17488;SDS011;8861;52.644;4.734;2022-11-15T11:24:44;13.97;;;7.83;;
17488;SDS011;8861;52.644;4.734;2022-11-15T11:27:18;13.90;;;7.40;;
17488;SDS011;8861;52.644;4.734;2022-11-15T11:30:07;14.90;;;7.70;;
17488;SDS011;8861;52.644;4.734;2022-11-15T11:32:45;12.70;;;7.80;;
17488;SDS011;8861;52.644;4.734;2022-11-15T11:35:22;13.77;;;7.10;;
17488;SDS011;8861;52.644;4.734;2022-11-15T11:37:54;10.90;;;6.67;;
17488;SDS011;8861;52.644;4.734;2022-11-15T11:40:30;13.20;;;6.93;;
17488;SDS011;8861;52.644;4.734;2022-11-15T11:43:04;12.00;;;7.20;;
17488;SDS011;8861;52.644;4.734;2022-11-15T11:48:36;14.33;;;7.30;;
17488;SDS011;8861;52.644;4.734;2022-11-15T11:51:10;12.83;;;6.90;;
17488;SDS011;8861;52.644;4.734;2022-11-15T11:53:45;11.40;;;6.60;;
17488;SDS011;8861;52.644;4.734;2022-11-15T11:56:19;13.17;;;6.90;;
17488;SDS011;8861;52.644;4.734;2022-11-15T11:58:50;13.53;;;6.70;;
17488;SDS011;8861;52.644;4.734;2022-11-15T12:01:22;9.80;;;6.27;;
17488;SDS011;8861;52.644;4.734;2022-11-15T12:03:51;11.13;;;5.77;;
17488;SDS011;8861;52.644;4.734;2022-11-15T12:06:24;9.10;;;5.87;;
17488;SDS011;8861;52.644;4.734;2022-11-15T12:09:00;11.23;;;5.40;;
17488;SDS011;8861;52.644;4.734;2022-11-15T12:11:34;11.23;;;5.60;;
17488;SDS011;8861;52.644;4.734;2022-11-15T12:14:11;9.03;;;5.50;;
17488;SDS011;8861;52.644;4.734;2022-11-15T12:16:47;10.13;;;5.23;;
17488;SDS011;8861;52.644;4.734;2022-11-15T12:19:14;11.67;;;5.90;;
17488;SDS011;8861;52.644;4.734;2022-11-15T12:21:42;9.57;;;4.90;;
17488;SDS011;8861;52.644;4.734;2022-11-15T12:24:15;9.17;;;4.77;;
17488;SDS011;8861;52.644;4.734;2022-11-15T12:26:48;12.70;;;4.63;;
17488;SDS011;8861;52.644;4.734;2022-11-15T12:29:19;10.83;;;4.33;;
17488;SDS011;8861;52.644;4.734;2022-11-15T12:31:51;10.53;;;5.13;;
17488;SDS011;8861;52.644;4.734;2022-11-15T12:34:43;9.30;;;4.67;;
17488;SDS011;8861;52.644;4.734;2022-11-15T12:40:23;8.67;;;4.33;;
17488;SDS011;8861;52.644;4.734;2022-11-15T12:46:12;11.27;;;5.17;;
17488;SDS011;8861;52.644;4.734;2022-11-15T12:48:50;7.17;;;4.70;;
17488;SDS011;8861;52.644;4.734;2022-11-15T12:51:22;7.87;;;4.60;;
17488;SDS011;8861;52.644;4.734;2022-11-15T13:03:16;8.43;;;4.17;;
17488;SDS011;8861;52.644;4.734;2022-11-15T13:08:43;12.93;;;4.00;;
17488;SDS011;8861;52.644;4.734;2022-11-15T13:17:18;8.73;;;3.57;;
17488;SDS011;8861;52.644;4.734;2022-11-15T13:20:19;5.27;;;2.80;;
17488;SDS011;8861;52.644;4.734;2022-11-15T13:22:52;6.53;;;2.90;;
17488;SDS011;8861;52.644;4.734;2022-11-15T13:25:48;8.20;;;2.87;;
17488;SDS011;8861;52.644;4.734;2022-11-15T13:28:26;6.60;;;2.90;;
17488;SDS011;8861;52.644;4.734;2022-11-15T13:30:59;6.23;;;2.77;;
17488;SDS011;8861;52.644;4.734;2022-11-15T13:33:31;8.87;;;2.60;;
17488;SDS011;8861;52.644;4.734;2022-11-15T13:36:01;7.87;;;2.87;;
17488;SDS011;8861;52.644;4.734;2022-11-15T13:38:29;8.00;;;2.80;;
17488;SDS011;8861;52.644;4.734;2022-11-15T13:40:58;7.70;;;2.57;;
17488;SDS011;8861;52.644;4.734;2022-11-15T13:43:27;7.97;;;2.40;;
17488;SDS011;8861;52.644;4.734;2022-11-15T13:46:05;8.10;;;2.70;;
17488;SDS011;8861;52.644;4.734;2022-11-15T13:48:39;7.03;;;2.50;;
17488;SDS011;8861;52.644;4.734;2022-11-15T13:51:09;5.03;;;2.30;;
17488;SDS011;8861;52.644;4.734;2022-11-15T13:53:43;5.63;;;1.93;;
17488;SDS011;8861;52.644;4.734;2022-11-15T13:56:12;5.23;;;2.30;;
17488;SDS011;8861;52.644;4.734;2022-11-15T13:58:40;9.90;;;3.37;;
17488;SDS011;8861;52.644;4.734;2022-11-15T14:01:13;7.67;;;3.00;;
17488;SDS011;8861;52.644;4.734;2022-11-15T14:03:46;5.13;;;2.90;;
17488;SDS011;8861;52.644;4.734;2022-11-15T14:06:18;4.57;;;2.43;;
17488;SDS011;8861;52.644;4.734;2022-11-15T14:11:52;5.53;;;2.50;;
17488;SDS011;8861;52.644;4.734;2022-11-15T14:14:20;5.93;;;2.30;;
17488;SDS011;8861;52.644;4.734;2022-11-15T14:16:51;5.10;;;2.20;;
17488;SDS011;8861;52.644;4.734;2022-11-15T14:19:35;5.27;;;2.20;;
17488;SDS011;8861;52.644;4.734;2022-11-15T14:22:08;7.57;;;2.50;;
17488;SDS011;8861;52.644;4.734;2022-11-15T14:24:43;7.53;;;2.57;;
17488;SDS011;8861;52.644;4.734;2022-11-15T14:27:18;7.87;;;2.40;;
17488;SDS011;8861;52.644;4.734;2022-11-15T14:29:46;7.63;;;2.57;;
17488;SDS011;8861;52.644;4.734;2022-11-15T14:32:16;4.03;;;2.30;;
17488;SDS011;8861;52.644;4.734;2022-11-15T14:34:44;5.53;;;2.20;;
17488;SDS011;8861;52.644;4.734;2022-11-15T14:37:16;8.57;;;2.00;;
17488;SDS011;8861;52.644;4.734;2022-11-15T14:39:47;6.70;;;2.40;;
17488;SDS011;8861;52.644;4.734;2022-11-15T14:42:14;8.37;;;2.40;;
17488;SDS011;8861;52.644;4.734;2022-11-15T14:44:41;4.57;;;2.30;;
17488;SDS011;8861;52.644;4.734;2022-11-15T14:47:08;6.53;;;2.00;;
17488;SDS011;8861;52.644;4.734;2022-11-15T14:49:36;6.77;;;2.33;;
17488;SDS011;8861;52.644;4.734;2022-11-15T14:52:07;7.73;;;2.20;;
17488;SDS011;8861;52.644;4.734;2022-11-15T14:54:49;4.97;;;2.17;;
17488;SDS011;8861;52.644;4.734;2022-11-15T14:57:16;6.73;;;2.30;;
17488;SDS011;8861;52.644;4.734;2022-11-15T14:59:44;5.60;;;2.40;;
17488;SDS011;8861;52.644;4.734;2022-11-15T15:02:14;4.37;;;2.00;;
17488;SDS011;8861;52.644;4.734;2022-11-15T15:04:44;4.63;;;2.10;;
17488;SDS011;8861;52.644;4.734;2022-11-15T15:07:11;8.07;;;3.77;;
17488;SDS011;8861;52.644;4.734;2022-11-15T15:09:38;7.27;;;3.50;;
17488;SDS011;8861;52.644;4.734;2022-11-15T15:12:05;7.20;;;2.77;;
17488;SDS011;8861;52.644;4.734;2022-11-15T15:14:42;4.90;;;2.23;;
17488;SDS011;8861;52.644;4.734;2022-11-15T15:17:09;5.40;;;2.40;;
17488;SDS011;8861;52.644;4.734;2022-11-15T15:19:36;5.97;;;2.20;;
17488;SDS011;8861;52.644;4.734;2022-11-15T15:22:04;4.60;;;2.17;;
17488;SDS011;8861;52.644;4.734;2022-11-15T15:24:31;6.67;;;2.27;;
17488;SDS011;8861;52.644;4.734;2022-11-15T15:26:58;6.63;;;2.20;;
17488;SDS011;8861;52.644;4.734;2022-11-15T15:29:25;5.73;;;2.00;;
17488;SDS011;8861;52.644;4.734;2022-11-15T15:31:52;7.70;;;2.73;;
17488;SDS011;8861;52.644;4.734;2022-11-15T15:34:19;4.87;;;2.30;;
17488;SDS011;8861;52.644;4.734;2022-11-15T15:36:46;4.70;;;2.40;;
17488;SDS011;8861;52.644;4.734;2022-11-15T15:39:14;7.13;;;2.60;;
17488;SDS011;8861;52.644;4.734;2022-11-15T15:41:41;4.70;;;2.70;;
17488;SDS011;8861;52.644;4.734;2022-11-15T15:44:08;7.10;;;3.07;;
17488;SDS011;8861;52.644;4.734;2022-11-15T15:46:35;6.67;;;3.00;;
17488;SDS011;8861;52.644;4.734;2022-11-15T15:49:02;6.93;;;3.03;;
17488;SDS011;8861;52.644;4.734;2022-11-15T15:51:28;4.77;;;2.90;;
17488;SDS011;8861;52.644;4.734;2022-11-15T15:53:55;8.17;;;3.10;;
17488;SDS011;8861;52.644;4.734;2022-11-15T15:56:24;9.03;;;3.40;;
17488;SDS011;8861;52.644;4.734;2022-11-15T15:58:53;7.87;;;3.27;;
17488;SDS011;8861;52.644;4.734;2022-11-15T16:01:20;6.80;;;3.27;;
17488;SDS011;8861;52.644;4.734;2022-11-15T16:03:47;7.50;;;3.33;;
17488;SDS011;8861;52.644;4.734;2022-11-15T16:09:10;6.53;;;3.47;;
17488;SDS011;8861;52.644;4.734;2022-11-15T16:11:41;6.40;;;3.30;;
17488;SDS011;8861;52.644;4.734;2022-11-15T16:14:08;9.20;;;3.40;;
17488;SDS011;8861;52.644;4.734;2022-11-15T16:16:35;6.63;;;3.40;;
17488;SDS011;8861;52.644;4.734;2022-11-15T16:19:03;5.57;;;3.37;;
17488;SDS011;8861;52.644;4.734;2022-11-15T16:21:30;7.03;;;3.47;;
17488;SDS011;8861;52.644;4.734;2022-11-15T16:23:57;8.30;;;3.17;;
17488;SDS011;8861;52.644;4.734;2022-11-15T16:26:26;6.80;;;3.00;;
17488;SDS011;8861;52.644;4.734;2022-11-15T16:28:56;3.77;;;2.70;;
17488;SDS011;8861;52.644;4.734;2022-11-15T16:31:23;6.47;;;3.17;;
17488;SDS011;8861;52.644;4.734;2022-11-15T16:33:50;6.60;;;3.37;;
17488;SDS011;8861;52.644;4.734;2022-11-15T16:36:19;7.63;;;3.67;;
17488;SDS011;8861;52.644;4.734;2022-11-15T16:38:47;5.20;;;3.03;;
17488;SDS011;8861;52.644;4.734;2022-11-15T16:41:14;4.70;;;3.30;;
17488;SDS011;8861;52.644;4.734;2022-11-15T16:43:43;4.77;;;3.10;;
17488;SDS011;8861;52.644;4.734;2022-11-15T16:46:15;6.87;;;3.03;;
17488;SDS011;8861;52.644;4.734;2022-11-15T16:48:45;7.10;;;2.83;;
17488;SDS011;8861;52.644;4.734;2022-11-15T16:51:12;7.17;;;3.07;;
17488;SDS011;8861;52.644;4.734;2022-11-15T16:53:39;9.00;;;3.90;;
17488;SDS011;8861;52.644;4.734;2022-11-15T16:56:15;9.17;;;3.77;;
17488;SDS011;8861;52.644;4.734;2022-11-15T16:58:45;5.83;;;3.30;;
17488;SDS011;8861;52.644;4.734;2022-11-15T17:01:16;7.43;;;3.47;;
17488;SDS011;8861;52.644;4.734;2022-11-15T17:03:46;8.13;;;3.60;;
17488;SDS011;8861;52.644;4.734;2022-11-15T17:06:13;4.80;;;3.27;;
17488;SDS011;8861;52.644;4.734;2022-11-15T17:08:42;7.23;;;4.23;;
17488;SDS011;8861;52.644;4.734;2022-11-15T17:11:10;10.17;;;5.67;;
17488;SDS011;8861;52.644;4.734;2022-11-15T17:13:40;8.00;;;5.00;;
17488;SDS011;8861;52.644;4.734;2022-11-15T17:16:08;9.90;;;5.17;;
17488;SDS011;8861;52.644;4.734;2022-11-15T17:18:39;8.33;;;5.13;;
17488;SDS011;8861;52.644;4.734;2022-11-15T17:21:09;9.00;;;5.30;;
17488;SDS011;8861;52.644;4.734;2022-11-15T17:23:38;9.83;;;4.47;;
17488;SDS011;8861;52.644;4.734;2022-11-15T17:26:05;8.63;;;4.20;;
17488;SDS011;8861;52.644;4.734;2022-11-15T17:28:33;6.87;;;4.57;;
17488;SDS011;8861;52.644;4.734;2022-11-15T17:31:00;9.27;;;4.60;;
17488;SDS011;8861;52.644;4.734;2022-11-15T17:33:27;9.00;;;5.43;;
17488;SDS011;8861;52.644;4.734;2022-11-15T17:35:56;9.17;;;4.77;;
17488;SDS011;8861;52.644;4.734;2022-11-15T17:38:23;12.40;;;5.67;;
17488;SDS011;8861;52.644;4.734;2022-11-15T17:41:00;7.77;;;5.20;;
17488;SDS011;8861;52.644;4.734;2022-11-15T17:43:29;10.53;;;4.70;;
17488;SDS011;8861;52.644;4.734;2022-11-15T17:45:57;8.73;;;5.17;;
17488;SDS011;8861;52.644;4.734;2022-11-15T17:48:24;9.30;;;5.60;;
17488;SDS011;8861;52.644;4.734;2022-11-15T17:50:56;9.80;;;4.90;;
17488;SDS011;8861;52.644;4.734;2022-11-15T17:53:24;9.97;;;5.40;;
17488;SDS011;8861;52.644;4.734;2022-11-15T17:55:52;10.33;;;5.00;;
17488;SDS011;8861;52.644;4.734;2022-11-15T17:58:20;13.43;;;6.57;;
17488;SDS011;8861;52.644;4.734;2022-11-15T18:00:47;8.43;;;4.93;;
17488;SDS011;8861;52.644;4.734;2022-11-15T18:03:14;10.07;;;5.43;;
17488;SDS011;8861;52.644;4.734;2022-11-15T18:05:41;9.90;;;5.70;;
17488;SDS011;8861;52.644;4.734;2022-11-15T18:08:10;9.77;;;5.40;;
17488;SDS011;8861;52.644;4.734;2022-11-15T18:10:38;10.53;;;5.83;;
17488;SDS011;8861;52.644;4.734;2022-11-15T18:13:05;10.27;;;6.10;;
17488;SDS011;8861;52.644;4.734;2022-11-15T18:15:33;9.93;;;4.97;;
17488;SDS011;8861;52.644;4.734;2022-11-15T18:18:00;8.77;;;4.93;;
17488;SDS011;8861;52.644;4.734;2022-11-15T18:20:27;9.23;;;5.00;;
17488;SDS011;8861;52.644;4.734;2022-11-15T18:22:54;9.03;;;5.50;;
17488;SDS011;8861;52.644;4.734;2022-11-15T18:25:22;8.63;;;5.60;;
17488;SDS011;8861;52.644;4.734;2022-11-15T18:27:49;7.17;;;5.23;;
17488;SDS011;8861;52.644;4.734;2022-11-15T18:30:19;7.23;;;5.10;;
17488;SDS011;8861;52.644;4.734;2022-11-15T18:32:46;11.20;;;5.90;;
17488;SDS011;8861;52.644;4.734;2022-11-15T18:35:13;13.40;;;6.10;;
17488;SDS011;8861;52.644;4.734;2022-11-15T18:37:40;9.97;;;5.80;;
17488;SDS011;8861;52.644;4.734;2022-11-15T18:40:07;10.00;;;5.77;;
17488;SDS011;8861;52.644;4.734;2022-11-15T18:42:36;11.97;;;6.80;;
17488;SDS011;8861;52.644;4.734;2022-11-15T18:45:03;9.60;;;6.23;;
17488;SDS011;8861;52.644;4.734;2022-11-15T18:47:31;12.57;;;8.07;;
17488;SDS011;8861;52.644;4.734;2022-11-15T18:49:58;12.77;;;7.77;;
17488;SDS011;8861;52.644;4.734;2022-11-15T18:52:25;10.03;;;6.60;;
17488;SDS011;8861;52.644;4.734;2022-11-15T18:54:52;9.80;;;5.87;;
17488;SDS011;8861;52.644;4.734;2022-11-15T18:57:19;11.47;;;6.80;;
17488;SDS011;8861;52.644;4.734;2022-11-15T18:59:47;10.03;;;6.40;;
17488;SDS011;8861;52.644;4.734;2022-11-15T19:02:14;9.83;;;6.03;;
17488;SDS011;8861;52.644;4.734;2022-11-15T19:04:41;9.90;;;6.40;;
17488;SDS011;8861;52.644;4.734;2022-11-15T19:07:08;8.97;;;6.67;;
17488;SDS011;8861;52.644;4.734;2022-11-15T19:09:36;8.70;;;5.77;;
17488;SDS011;8861;52.644;4.734;2022-11-15T19:12:03;9.70;;;6.73;;
17488;SDS011;8861;52.644;4.734;2022-11-15T19:14:30;10.53;;;6.33;;
17488;SDS011;8861;52.644;4.734;2022-11-15T19:16:59;11.07;;;7.00;;
17488;SDS011;8861;52.644;4.734;2022-11-15T19:19:26;12.40;;;7.10;;
17488;SDS011;8861;52.644;4.734;2022-11-15T19:21:53;13.13;;;7.30;;
17488;SDS011;8861;52.644;4.734;2022-11-15T19:24:22;13.53;;;7.00;;
17488;SDS011;8861;52.644;4.734;2022-11-15T19:26:49;10.00;;;6.50;;
17488;SDS011;8861;52.644;4.734;2022-11-15T19:29:16;9.13;;;7.30;;
17488;SDS011;8861;52.644;4.734;2022-11-15T19:31:43;12.83;;;7.67;;
17488;SDS011;8861;52.644;4.734;2022-11-15T19:34:13;12.93;;;7.63;;
17488;SDS011;8861;52.644;4.734;2022-11-15T19:36:40;13.10;;;8.13;;
17488;SDS011;8861;52.644;4.734;2022-11-15T19:39:09;11.33;;;7.73;;
17488;SDS011;8861;52.644;4.734;2022-11-15T19:41:37;10.60;;;7.73;;
17488;SDS011;8861;52.644;4.734;2022-11-15T19:44:06;14.97;;;8.90;;
17488;SDS011;8861;52.644;4.734;2022-11-15T19:46:33;12.70;;;8.47;;
17488;SDS011;8861;52.644;4.734;2022-11-15T19:49:01;12.23;;;8.63;;
17488;SDS011;8861;52.644;4.734;2022-11-15T19:51:32;11.77;;;8.27;;
17488;SDS011;8861;52.644;4.734;2022-11-15T19:54:00;10.70;;;8.37;;
17488;SDS011;8861;52.644;4.734;2022-11-15T19:56:30;14.17;;;9.27;;
17488;SDS011;8861;52.644;4.734;2022-11-15T19:58:58;13.37;;;9.27;;
17488;SDS011;8861;52.644;4.734;2022-11-15T20:01:26;13.20;;;9.07;;
17488;SDS011;8861;52.644;4.734;2022-11-15T20:03:55;16.23;;;11.20;;
17488;SDS011;8861;52.644;4.734;2022-11-15T20:06:24;14.20;;;10.27;;
17488;SDS011;8861;52.644;4.734;2022-11-15T20:08:53;13.77;;;10.23;;
17488;SDS011;8861;52.644;4.734;2022-11-15T20:11:20;15.53;;;10.50;;
17488;SDS011;8861;52.644;4.734;2022-11-15T20:13:48;14.60;;;10.20;;
17488;SDS011;8861;52.644;4.734;2022-11-15T20:16:16;13.27;;;9.87;;
17488;SDS011;8861;52.644;4.734;2022-11-15T20:18:44;14.87;;;10.83;;
17488;SDS011;8861;52.644;4.734;2022-11-15T20:21:11;14.60;;;11.03;;
17488;SDS011;8861;52.644;4.734;2022-11-15T20:23:39;14.70;;;10.63;;
17488;SDS011;8861;52.644;4.734;2022-11-15T20:26:07;15.30;;;10.57;;
17488;SDS011;8861;52.644;4.734;2022-11-15T20:28:36;15.30;;;11.50;;
17488;SDS011;8861;52.644;4.734;2022-11-15T20:31:04;14.93;;;11.13;;
17488;SDS011;8861;52.644;4.734;2022-11-15T20:33:32;16.37;;;12.50;;
17488;SDS011;8861;52.644;4.734;2022-11-15T20:36:01;19.60;;;12.00;;
17488;SDS011;8861;52.644;4.734;2022-11-15T20:38:29;14.80;;;11.63;;
17488;SDS011;8861;52.644;4.734;2022-11-15T20:40:57;18.57;;;12.50;;
17488;SDS011;8861;52.644;4.734;2022-11-15T20:43:25;15.83;;;12.17;;
17488;SDS011;8861;52.644;4.734;2022-11-15T20:45:52;19.20;;;14.00;;
17488;SDS011;8861;52.644;4.734;2022-11-15T20:48:20;17.97;;;12.83;;
17488;SDS011;8861;52.644;4.734;2022-11-15T20:50:47;18.37;;;13.20;;
17488;SDS011;8861;52.644;4.734;2022-11-15T20:53:15;16.13;;;11.87;;
17488;SDS011;8861;52.644;4.734;2022-11-15T20:55:44;16.87;;;12.00;;
17488;SDS011;8861;52.644;4.734;2022-11-15T20:58:13;17.17;;;12.87;;
17488;SDS011;8861;52.644;4.734;2022-11-15T21:00:41;17.90;;;14.13;;
17488;SDS011;8861;52.644;4.734;2022-11-15T21:03:08;19.80;;;14.47;;
17488;SDS011;8861;52.644;4.734;2022-11-15T21:05:36;19.90;;;14.03;;
17488;SDS011;8861;52.644;4.734;2022-11-15T21:08:04;15.67;;;12.90;;
17488;SDS011;8861;52.644;4.734;2022-11-15T21:10:32;17.83;;;14.03;;
17488;SDS011;8861;52.644;4.734;2022-11-15T21:13:16;21.53;;;14.70;;
17488;SDS011;8861;52.644;4.734;2022-11-15T21:15:45;21.80;;;15.33;;
17488;SDS011;8861;52.644;4.734;2022-11-15T21:18:12;22.10;;;15.60;;
17488;SDS011;8861;52.644;4.734;2022-11-15T21:20:39;17.37;;;13.73;;
17488;SDS011;8861;52.644;4.734;2022-11-15T21:23:06;20.90;;;14.23;;
17488;SDS011;8861;52.644;4.734;2022-11-15T21:25:34;19.73;;;14.03;;
17488;SDS011;8861;52.644;4.734;2022-11-15T21:28:01;19.70;;;14.27;;
17488;SDS011;8861;52.644;4.734;2022-11-15T21:30:27;17.53;;;14.03;;
17488;SDS011;8861;52.644;4.734;2022-11-15T21:32:56;17.13;;;13.47;;
17488;SDS011;8861;52.644;4.734;2022-11-15T21:35:23;19.97;;;13.70;;
17488;SDS011;8861;52.644;4.734;2022-11-15T21:37:49;19.27;;;13.83;;
17488;SDS011;8861;52.644;4.734;2022-11-15T21:40:16;17.13;;;13.53;;
17488;SDS011;8861;52.644;4.734;2022-11-15T21:42:43;19.57;;;14.73;;
17488;SDS011;8861;52.644;4.734;2022-11-15T21:45:10;19.57;;;14.50;;
17488;SDS011;8861;52.644;4.734;2022-11-15T21:47:37;20.67;;;14.57;;
17488;SDS011;8861;52.644;4.734;2022-11-15T21:50:06;20.27;;;14.33;;
17488;SDS011;8861;52.644;4.734;2022-11-15T21:52:34;16.50;;;13.13;;
17488;SDS011;8861;52.644;4.734;2022-11-15T21:55:01;18.30;;;14.03;;
17488;SDS011;8861;52.644;4.734;2022-11-15T21:57:27;20.73;;;15.43;;
17488;SDS011;8861;52.644;4.734;2022-11-15T21:59:55;21.23;;;15.53;;
17488;SDS011;8861;52.644;4.734;2022-11-15T22:02:39;18.73;;;14.73;;
17488;SDS011;8861;52.644;4.734;2022-11-15T22:05:08;19.57;;;15.27;;
17488;SDS011;8861;52.644;4.734;2022-11-15T22:07:34;22.30;;;16.00;;
17488;SDS011;8861;52.644;4.734;2022-11-15T22:10:01;19.50;;;15.37;;
17488;SDS011;8861;52.644;4.734;2022-11-15T22:12:28;19.60;;;14.43;;
17488;SDS011;8861;52.644;4.734;2022-11-15T22:14:55;17.83;;;14.17;;
17488;SDS011;8861;52.644;4.734;2022-11-15T22:17:22;18.90;;;14.70;;
17488;SDS011;8861;52.644;4.734;2022-11-15T22:20:11;18.00;;;14.27;;
17488;SDS011;8861;52.644;4.734;2022-11-15T22:22:38;19.00;;;13.50;;
17488;SDS011;8861;52.644;4.734;2022-11-15T22:25:05;17.47;;;13.67;;
17488;SDS011;8861;52.644;4.734;2022-11-15T22:27:32;20.37;;;14.20;;
17488;SDS011;8861;52.644;4.734;2022-11-15T22:29:59;17.70;;;13.13;;
17488;SDS011;8861;52.644;4.734;2022-11-15T22:32:26;17.27;;;13.50;;
17488;SDS011;8861;52.644;4.734;2022-11-15T22:34:53;18.87;;;13.70;;
17488;SDS011;8861;52.644;4.734;2022-11-15T22:37:21;18.80;;;13.67;;
17488;SDS011;8861;52.644;4.734;2022-11-15T22:39:48;16.80;;;13.47;;
17488;SDS011;8861;52.644;4.734;2022-11-15T22:42:15;18.50;;;14.77;;
17488;SDS011;8861;52.644;4.734;2022-11-15T22:44:42;18.80;;;15.03;;
17488;SDS011;8861;52.644;4.734;2022-11-15T22:47:09;19.47;;;14.87;;
17488;SDS011;8861;52.644;4.734;2022-11-15T22:49:35;17.43;;;14.30;;
17488;SDS011;8861;52.644;4.734;2022-11-15T22:52:02;20.63;;;16.07;;
17488;SDS011;8861;52.644;4.734;2022-11-15T22:54:31;18.70;;;14.23;;
17488;SDS011;8861;52.644;4.734;2022-11-15T22:56:58;17.53;;;14.20;;